createdAt,value
2024-04-04T00:02:22.445Z,97047.90
2024-04-04T00:05:00.047Z,97051.77
2024-04-04T00:07:27.986Z,97051.40
2024-04-04T00:09:56.338Z,97056.50
2024-04-04T00:12:26.369Z,97054.22
2024-04-04T00:14:54.393Z,97053.85
2024-04-04T00:17:22.479Z,97048.96
2024-04-04T00:19:50.659Z,97048.84
2024-04-04T00:22:18.513Z,97047.28
2024-04-04T00:24:46.509Z,97046.91
2024-04-04T00:27:17.160Z,97047.52
2024-04-04T00:29:45.419Z,97050.55
2024-04-04T00:32:13.301Z,97051.35
2024-04-04T00:34:41.247Z,97059.11
2024-04-04T00:37:09.491Z,97061.52
2024-04-04T00:39:37.282Z,97055.85
2024-04-04T00:42:05.403Z,97052.29
2024-04-04T00:44:33.382Z,97053.85
2024-04-04T00:47:01.567Z,97051.32
2024-04-04T00:49:29.574Z,97051.08
2024-04-04T00:51:57.622Z,97056.17
2024-04-04T00:54:25.709Z,97049.81
2024-04-04T00:56:54.111Z,97047.97
2024-04-04T00:59:21.886Z,97053.42
2024-04-04T01:01:49.724Z,97058.66
2024-04-04T01:04:17.480Z,97058.13
2024-04-04T01:06:49.482Z,97055.38
2024-04-04T01:09:17.767Z,97051.85
2024-04-04T01:11:45.683Z,97055.08
2024-04-04T01:14:13.613Z,97055.99
2024-04-04T01:16:41.742Z,97053.06
2024-04-04T01:19:09.904Z,97053.91
2024-04-04T01:21:37.660Z,97055.49
2024-04-04T01:24:06.213Z,97053.78
2024-04-04T01:26:34.101Z,97053.17
2024-04-04T01:29:02.115Z,97048.88
2024-04-04T01:31:31.183Z,97051.11
2024-04-04T01:33:59.200Z,97054.70
2024-04-04T01:36:27.123Z,97058.91
2024-04-04T01:38:55.002Z,97056.72
2024-04-04T01:41:23.035Z,97056.72
2024-04-04T01:43:51.007Z,97059.21
2024-04-04T01:46:18.990Z,97066.98
2024-04-04T01:48:46.895Z,97068.35
2024-04-04T01:51:14.893Z,97064.27
2024-04-04T01:53:43.079Z,97068.34
2024-04-04T01:56:11.109Z,97070.74
2024-04-04T01:58:39.093Z,97071.63
2024-04-04T02:01:06.905Z,97074.33
2024-04-04T02:03:34.589Z,97078.77
2024-04-04T02:06:02.605Z,97078.81
2024-04-04T02:08:30.412Z,97077.73
2024-04-04T02:10:58.175Z,97080.48
2024-04-04T02:13:28.142Z,97080.94
2024-04-04T02:15:56.373Z,97083.50
2024-04-04T02:18:24.603Z,97084.20
2024-04-04T02:20:53.117Z,97091.36
2024-04-04T02:23:20.925Z,97096.59
2024-04-04T02:25:49.117Z,97096.66
2024-04-04T02:28:16.947Z,97096.00
2024-04-04T02:30:44.838Z,97100.17
2024-04-04T02:33:12.888Z,97097.64
2024-04-04T02:35:44.839Z,97103.48
2024-04-04T02:38:12.800Z,97108.09
2024-04-04T02:40:41.795Z,97112.21
2024-04-04T02:43:09.468Z,97118.10
2024-04-04T02:45:37.728Z,97116.23
2024-04-04T02:48:06.023Z,97115.99
2024-04-04T02:50:34.223Z,97118.85
2024-04-04T02:53:02.194Z,97123.91
2024-04-04T02:55:32.526Z,97127.41
2024-04-04T02:58:00.869Z,97130.88
2024-04-04T03:00:28.988Z,97130.22
2024-04-04T03:02:57.806Z,97132.35
2024-04-04T03:05:27.003Z,97133.05
2024-04-04T03:07:54.958Z,97139.11
2024-04-04T03:10:22.847Z,97138.90
2024-04-04T03:12:51.007Z,97140.01
2024-04-04T03:15:18.905Z,97145.56
2024-04-04T03:17:46.852Z,97145.23
2024-04-04T03:20:15.026Z,97145.04
2024-04-04T03:22:42.920Z,97141.20
2024-04-04T03:25:11.124Z,97141.44
2024-04-04T03:27:39.287Z,97139.84
2024-04-04T03:30:08.618Z,97138.85
2024-04-04T03:32:36.524Z,97138.57
2024-04-04T03:35:04.836Z,97132.98
2024-04-04T03:37:33.170Z,97130.86
2024-04-04T03:40:01.685Z,97132.44
2024-04-04T03:42:29.736Z,97127.38
2024-04-04T03:44:57.566Z,97121.55
2024-04-04T03:47:25.335Z,97117.23
2024-04-04T03:49:53.412Z,97114.89
2024-04-04T03:52:21.321Z,97110.84
2024-04-04T03:54:49.311Z,97109.30
2024-04-04T03:57:18.084Z,97102.24
2024-04-04T03:59:46.228Z,97095.96
2024-04-04T04:02:14.066Z,97094.09
2024-04-04T04:04:42.129Z,97093.85
2024-04-04T04:07:09.932Z,97097.00
2024-04-04T04:09:37.794Z,97109.33
2024-04-04T04:12:06.073Z,97112.69
2024-04-04T04:14:33.982Z,97113.91
2024-04-04T04:17:02.236Z,97116.73
2024-04-04T04:19:30.214Z,97114.08
2024-04-04T04:21:58.065Z,97109.70
2024-04-04T04:24:26.151Z,97110.28
2024-04-04T04:26:54.296Z,97109.75
2024-04-04T04:29:22.549Z,97110.14
2024-04-04T04:31:55.791Z,97113.66
2024-04-04T04:34:23.724Z,97114.52
2024-04-04T04:36:56.484Z,97112.42
2024-04-04T04:39:24.905Z,97111.05
2024-04-04T04:41:52.680Z,97114.30
2024-04-04T04:44:20.540Z,97112.17
2024-04-04T04:46:48.441Z,97112.59
2024-04-04T04:49:16.262Z,97110.63
2024-04-04T04:51:44.325Z,97109.61
2024-04-04T04:54:12.728Z,97112.58
2024-04-04T04:56:40.524Z,97120.46
2024-04-04T04:59:08.460Z,97125.48
2024-04-04T05:01:38.195Z,97125.56
2024-04-04T05:04:06.627Z,97122.64
2024-04-04T05:06:35.576Z,97121.90
2024-04-04T05:09:04.658Z,97125.04
2024-04-04T05:11:32.580Z,97125.16
2024-04-04T05:14:00.454Z,97129.09
2024-04-04T05:16:28.388Z,97124.88
2024-04-04T05:18:56.331Z,97122.82
2024-04-04T05:21:24.220Z,97127.04
2024-04-04T05:23:52.125Z,97128.54
2024-04-04T05:26:20.026Z,97126.95
2024-04-04T05:28:52.186Z,97130.12
2024-04-04T05:31:20.135Z,97133.17
2024-04-04T05:33:47.968Z,97131.18
2024-04-04T05:36:15.782Z,97137.77
2024-04-04T05:38:43.760Z,97135.98
2024-04-04T05:41:14.130Z,97134.23
2024-04-04T05:43:41.886Z,97132.64
2024-04-04T05:46:09.731Z,97131.48
2024-04-04T05:48:37.682Z,97130.67
2024-04-04T05:51:06.124Z,97128.73
2024-04-04T05:53:34.336Z,97125.70
2024-04-04T05:56:02.317Z,97129.83
2024-04-04T05:58:30.092Z,97136.64
2024-04-04T06:00:57.997Z,97137.13
2024-04-04T06:03:25.799Z,97140.46
2024-04-04T06:05:53.728Z,97141.32
2024-04-04T06:08:23.317Z,97141.44
2024-04-04T06:10:51.463Z,97143.21
2024-04-04T06:13:19.407Z,97149.96
2024-04-04T06:15:54.578Z,97150.02
2024-04-04T06:18:22.529Z,97147.34
2024-04-04T06:20:50.467Z,97145.90
2024-04-04T06:23:18.275Z,97150.67
2024-04-04T06:25:46.101Z,97149.84
2024-04-04T06:28:13.918Z,97150.29
2024-04-04T06:30:41.789Z,97149.59
2024-04-04T06:33:09.631Z,97158.10
2024-04-04T06:35:37.634Z,97161.40
2024-04-04T06:38:05.526Z,97163.34
2024-04-04T06:40:39.157Z,97162.35
2024-04-04T06:43:07.374Z,97163.04
2024-04-04T06:45:35.551Z,97166.31
2024-04-04T06:48:03.679Z,97164.64
2024-04-04T06:50:31.570Z,97166.48
2024-04-04T06:52:59.391Z,97169.46
2024-04-04T06:55:27.340Z,97172.07
2024-04-04T06:57:55.274Z,97175.41
2024-04-04T07:00:23.759Z,97178.63
2024-04-04T07:02:51.655Z,97178.80
2024-04-04T07:05:20.132Z,97182.20
2024-04-04T07:07:48.043Z,97183.86
2024-04-04T07:10:15.795Z,97186.38
2024-04-04T07:12:43.766Z,97184.90
2024-04-04T07:15:11.747Z,97191.18
2024-04-04T07:17:39.756Z,97190.84
2024-04-04T07:20:07.864Z,97191.86
2024-04-04T07:22:36.403Z,97191.88
2024-04-04T07:25:04.638Z,97190.48
2024-04-04T07:27:32.372Z,97190.08
2024-04-04T07:30:00.439Z,97183.84
2024-04-04T07:32:28.351Z,97182.14
2024-04-04T07:35:02.104Z,97184.16
2024-04-04T07:37:29.908Z,97191.09
2024-04-04T07:39:59.224Z,97192.40
2024-04-04T07:42:27.254Z,97190.20
2024-04-04T07:44:55.434Z,97188.15
2024-04-04T07:47:23.341Z,97184.76
2024-04-04T07:49:51.280Z,97180.69
2024-04-04T07:52:21.520Z,97177.83
2024-04-04T07:54:49.807Z,97181.30
2024-04-04T07:57:19.803Z,97181.34
2024-04-04T07:59:47.802Z,97185.30
2024-04-04T08:02:16.241Z,97181.48
2024-04-04T08:04:44.306Z,97183.17
2024-04-04T08:07:12.326Z,97186.85
2024-04-04T08:09:40.282Z,97188.44
2024-04-04T08:12:08.706Z,97188.70
2024-04-04T08:14:37.654Z,97192.32
2024-04-04T08:17:05.847Z,97194.02
2024-04-04T08:19:33.749Z,97191.15
2024-04-04T08:22:01.667Z,97186.91
2024-04-04T08:24:29.483Z,97186.20
2024-04-04T08:27:00.343Z,97186.39
2024-04-04T08:29:28.434Z,97192.27
2024-04-04T08:31:56.302Z,97196.68
2024-04-04T08:34:24.348Z,97195.11
2024-04-04T08:36:52.339Z,97193.32
2024-04-04T08:39:21.513Z,97196.09
2024-04-04T08:41:49.503Z,97196.92
2024-04-04T08:44:18.120Z,97192.52
2024-04-04T08:46:47.461Z,97193.38
2024-04-04T08:49:17.620Z,97190.94
2024-04-04T08:51:45.599Z,97188.25
2024-04-04T08:54:14.482Z,97183.92
2024-04-04T08:56:45.656Z,97182.67
2024-04-04T08:59:13.902Z,97181.17
2024-04-04T09:01:41.843Z,97179.12
2024-04-04T09:04:09.915Z,97183.30
2024-04-04T09:06:38.771Z,97184.00
2024-04-04T09:09:08.640Z,97177.44
2024-04-04T09:11:36.560Z,97174.68
2024-04-04T09:14:06.595Z,97170.57
2024-04-04T09:16:34.489Z,97173.64
2024-04-04T09:19:16.707Z,97173.42
2024-04-04T09:21:45.846Z,97173.02
2024-04-04T09:24:16.240Z,97172.15
2024-04-04T09:26:45.156Z,97172.96
2024-04-04T09:29:13.244Z,97175.39
2024-04-04T09:31:42.795Z,97178.13
2024-04-04T09:34:14.395Z,97177.67
2024-04-04T09:36:46.341Z,97178.56
2024-04-04T09:39:20.546Z,97178.55
2024-04-04T09:41:51.006Z,97180.55
2024-04-04T09:44:19.816Z,97181.70
2024-04-04T09:46:48.258Z,97179.01
2024-04-04T09:49:18.466Z,97181.02
2024-04-04T09:51:51.106Z,97182.81
2024-04-04T09:54:21.499Z,97184.94
2024-04-04T09:56:50.761Z,97184.64
2024-04-04T09:59:29.050Z,97183.12
2024-04-04T10:02:07.201Z,97182.98
2024-04-04T10:04:36.525Z,97183.68
2024-04-04T10:07:05.648Z,97187.52
2024-04-04T10:09:41.387Z,97187.61
2024-04-04T10:12:11.130Z,97185.61
2024-04-04T10:14:39.277Z,97189.49
2024-04-04T10:17:07.603Z,97189.33
2024-04-04T10:19:36.372Z,97190.83
2024-04-04T10:22:16.049Z,97191.22
2024-04-04T10:24:44.244Z,97191.64
2024-04-04T10:27:13.381Z,97196.20
2024-04-04T10:29:46.590Z,97197.02
2024-04-04T10:32:19.914Z,97197.64
2024-04-04T10:34:48.007Z,97197.43
2024-04-04T10:37:16.025Z,97201.45
2024-04-04T10:39:43.972Z,97207.52
2024-04-04T10:42:12.036Z,97213.35
2024-04-04T10:44:40.123Z,97213.56
2024-04-04T10:47:09.908Z,97217.98
2024-04-04T10:49:37.858Z,97221.35
2024-04-04T10:52:06.865Z,97221.77
2024-04-04T10:54:35.496Z,97222.33
2024-04-04T10:57:04.165Z,97221.63
2024-04-04T10:59:32.780Z,97222.35
2024-04-04T11:02:05.740Z,97224.88
2024-04-04T11:04:33.823Z,97225.62
2024-04-04T11:07:05.858Z,97224.16
2024-04-04T11:09:36.954Z,97222.86
2024-04-04T11:12:05.777Z,97218.56
2024-04-04T11:14:34.081Z,97219.95
2024-04-04T11:17:01.918Z,97215.27
2024-04-04T11:19:29.942Z,97211.76
2024-04-04T11:21:57.827Z,97209.77
2024-04-04T11:24:29.996Z,97207.20
2024-04-04T11:26:58.077Z,97207.25
2024-04-04T11:29:26.066Z,97205.64
2024-04-04T11:31:55.031Z,97202.60
2024-04-04T11:34:22.854Z,97203.58
2024-04-04T11:36:51.941Z,97205.28
2024-04-04T11:39:21.697Z,97210.04
2024-04-04T11:41:51.950Z,97207.20
2024-04-04T11:44:19.806Z,97206.19
2024-04-04T11:46:47.769Z,97202.43
2024-04-04T11:49:17.997Z,97199.81
2024-04-04T11:51:46.451Z,97196.86
2024-04-04T11:54:14.450Z,97195.77
2024-04-04T11:56:42.242Z,97193.77
2024-04-04T11:59:10.020Z,97193.14
2024-04-04T12:01:39.005Z,97192.39
2024-04-04T12:04:09.729Z,97188.70
2024-04-04T12:06:37.835Z,97189.02
2024-04-04T12:09:11.010Z,97187.61
2024-04-04T12:11:39.496Z,97185.35
2024-04-04T12:14:08.555Z,97181.88
2024-04-04T12:16:40.479Z,97180.95
2024-04-04T12:19:27.045Z,97172.10
2024-04-04T12:21:56.086Z,97179.84
2024-04-04T12:24:24.552Z,97178.35
2024-04-04T12:26:52.582Z,97183.64
2024-04-04T12:29:21.023Z,97185.88
2024-04-04T12:31:50.621Z,97186.98
2024-04-04T12:34:18.672Z,97189.57
2024-04-04T12:36:46.902Z,97191.48
2024-04-04T12:39:15.755Z,97189.26
2024-04-04T12:41:43.643Z,97189.27
2024-04-04T12:44:11.542Z,97187.59
2024-04-04T12:46:40.694Z,97183.79
2024-04-04T12:49:09.140Z,97182.86
2024-04-04T12:51:37.662Z,97181.53
2024-04-04T12:54:05.602Z,97183.95
2024-04-04T12:56:33.574Z,97182.58
2024-04-04T12:59:01.544Z,97183.78
2024-04-04T13:01:29.471Z,97181.16
2024-04-04T13:03:57.494Z,97182.30
2024-04-04T13:06:25.796Z,97183.70
2024-04-04T13:08:54.066Z,97187.67
2024-04-04T13:11:21.938Z,97184.65
2024-04-04T13:13:49.845Z,97181.72
2024-04-04T13:16:17.947Z,97184.13
2024-04-04T13:18:45.889Z,97182.77
2024-04-04T13:21:13.951Z,97185.79
2024-04-04T13:23:41.873Z,97189.15
2024-04-04T13:26:09.996Z,97188.55
2024-04-04T13:28:37.900Z,97188.91
2024-04-04T13:31:05.827Z,97185.27
2024-04-04T13:33:33.971Z,97186.95
2024-04-04T13:36:02.095Z,97187.41
2024-04-04T13:38:31.967Z,97182.54
2024-04-04T13:41:00.078Z,97182.29
2024-04-04T13:43:27.975Z,97182.29
2024-04-04T13:45:56.175Z,97188.12
2024-04-04T13:48:24.281Z,97183.59
2024-04-04T13:50:52.299Z,97181.94
2024-04-04T13:53:20.095Z,97183.89
2024-04-04T13:55:47.997Z,97184.15
2024-04-04T13:58:16.520Z,97190.26
2024-04-04T14:00:44.391Z,97181.86
2024-04-04T14:03:12.184Z,97188.67
2024-04-04T14:05:40.064Z,97192.30
2024-04-04T14:08:07.866Z,97190.20
2024-04-04T14:10:35.809Z,97189.01
2024-04-04T14:13:03.797Z,97189.94
2024-04-04T14:15:31.652Z,97191.07
2024-04-04T14:17:59.606Z,97198.19
2024-04-04T14:20:27.581Z,97199.68
2024-04-04T14:22:55.401Z,97201.24
2024-04-04T14:25:23.346Z,97202.05
2024-04-04T14:27:51.261Z,97201.33
2024-04-04T14:30:19.243Z,97202.45
2024-04-04T14:32:47.108Z,97202.95
2024-04-04T14:35:15.416Z,97201.16
2024-04-04T14:37:43.441Z,97197.80
2024-04-04T14:40:11.770Z,97201.90
2024-04-04T14:42:39.581Z,97202.52
2024-04-04T14:45:10.116Z,97209.54
2024-04-04T14:47:38.229Z,97208.77
2024-04-04T14:50:06.378Z,97207.95
2024-04-04T14:52:34.403Z,97213.33
2024-04-04T14:55:02.459Z,97215.30
2024-04-04T14:57:30.767Z,97213.84
2024-04-04T14:59:58.645Z,97217.27
2024-04-04T15:02:26.472Z,97221.13
2024-04-04T15:04:54.348Z,97218.11
2024-04-04T15:07:25.310Z,97215.95
2024-04-04T15:09:53.184Z,97218.23
2024-04-04T15:12:21.016Z,97221.58
2024-04-04T15:14:49.194Z,97220.41
2024-04-04T15:17:16.949Z,97221.84
2024-04-04T15:19:44.868Z,97221.86
2024-04-04T15:22:12.934Z,97223.92
2024-04-04T15:24:40.680Z,97221.73
2024-04-04T15:27:08.514Z,97225.52
2024-04-04T15:29:36.544Z,97231.32
2024-04-04T15:32:04.716Z,97229.66
2024-04-04T15:34:32.555Z,97227.34
2024-04-04T15:37:00.530Z,97227.23
2024-04-04T15:39:29.051Z,97229.70
2024-04-04T15:41:56.835Z,97230.98
2024-04-04T15:44:25.283Z,97230.41
2024-04-04T15:46:54.501Z,97233.61
2024-04-04T15:49:22.564Z,97233.92
2024-04-04T15:51:50.459Z,97235.30
2024-04-04T15:54:18.207Z,97237.85
2024-04-04T15:56:47.263Z,97241.80
2024-04-04T15:59:16.805Z,97242.41
2024-04-04T16:01:46.936Z,97242.40
2024-04-04T16:04:15.098Z,97245.46
2024-04-04T16:06:43.039Z,97242.34
2024-04-04T16:09:11.234Z,97244.16
2024-04-04T16:11:39.262Z,97245.38
2024-04-04T16:14:07.108Z,97247.52
2024-04-04T16:16:34.913Z,97250.37
2024-04-04T16:19:02.837Z,97249.28
2024-04-04T16:21:31.078Z,97249.09
2024-04-04T16:23:58.954Z,97255.35
2024-04-04T16:26:26.861Z,97256.79
2024-04-04T16:28:54.747Z,97260.59
2024-04-04T16:31:22.872Z,97265.07
2024-04-04T16:33:50.972Z,97269.76
2024-04-04T16:36:19.831Z,97276.05
2024-04-04T16:38:47.613Z,97276.02
2024-04-04T16:41:15.573Z,97274.51
2024-04-04T16:43:43.530Z,97274.45
2024-04-04T16:46:11.561Z,97273.83
2024-04-04T16:48:39.342Z,97275.20
2024-04-04T16:51:07.552Z,97280.87
2024-04-04T16:53:35.690Z,97282.31
2024-04-04T16:56:08.374Z,97285.45
2024-04-04T16:58:36.692Z,97289.69
2024-04-04T17:01:04.800Z,97288.56
2024-04-04T17:03:32.746Z,97288.82
2024-04-04T17:06:00.816Z,97290.52
2024-04-04T17:08:28.735Z,97289.31
2024-04-04T17:10:56.536Z,97291.33
2024-04-04T17:13:24.926Z,97291.67
2024-04-04T17:15:52.733Z,97293.41
2024-04-04T17:18:21.019Z,97297.70
2024-04-04T17:20:48.967Z,97301.28
2024-04-04T17:23:16.833Z,97306.41
2024-04-04T17:25:44.796Z,97304.86
2024-04-04T17:28:12.715Z,97308.48
2024-04-04T17:30:40.463Z,97314.20
2024-04-04T17:33:08.433Z,97311.89
2024-04-04T17:35:36.567Z,97309.80
2024-04-04T17:38:04.540Z,97313.23
2024-04-04T17:40:32.414Z,97315.77
2024-04-04T17:43:00.314Z,97318.58
2024-04-04T17:45:28.180Z,97321.75
2024-04-04T17:47:56.702Z,97322.53
2024-04-04T17:50:24.781Z,97325.48
2024-04-04T17:52:53.776Z,97329.80
2024-04-04T17:55:21.762Z,97328.89
2024-04-04T17:57:50.086Z,97327.17
2024-04-04T18:00:18.025Z,97329.44
2024-04-04T18:02:46.016Z,97333.19
2024-04-04T18:05:13.744Z,97329.98
2024-04-04T18:07:42.004Z,97333.25
2024-04-04T18:10:09.991Z,97336.02
2024-04-04T18:12:38.093Z,97339.27
2024-04-04T18:15:06.602Z,97334.60
2024-04-04T18:17:34.697Z,97337.56
2024-04-04T18:20:04.581Z,97340.14
2024-04-04T18:22:32.764Z,97342.27
2024-04-04T18:25:00.525Z,97340.80
2024-04-04T18:27:28.292Z,97342.57
2024-04-04T18:29:56.137Z,97345.52
2024-04-04T18:32:24.708Z,97349.56
2024-04-04T18:34:52.410Z,97348.91
2024-04-04T18:37:20.188Z,97350.44
2024-04-04T18:39:48.148Z,97349.09
2024-04-04T18:42:17.308Z,97347.01
2024-04-04T18:44:46.428Z,97349.02
2024-04-04T18:47:14.966Z,97351.05
2024-04-04T18:49:43.781Z,97352.80
2024-04-04T18:52:13.551Z,97356.51
2024-04-04T18:54:41.515Z,97359.91
2024-04-04T18:57:09.377Z,97362.23
2024-04-04T18:59:37.199Z,97363.89
2024-04-04T19:02:05.233Z,97361.22
2024-04-04T19:04:33.085Z,97367.01
2024-04-04T19:07:00.884Z,97365.67
2024-04-04T19:09:28.946Z,97363.46
2024-04-04T19:11:59.536Z,97363.39
2024-04-04T19:14:27.465Z,97370.22
2024-04-04T19:16:55.266Z,97373.95
2024-04-04T19:19:23.452Z,97369.90
2024-04-04T19:21:51.463Z,97370.84
2024-04-04T19:24:19.355Z,97375.78
2024-04-04T19:26:47.483Z,97380.19
2024-04-04T19:29:15.510Z,97383.21
2024-04-04T19:31:43.513Z,97383.14
2024-04-04T19:34:11.418Z,97379.14
2024-04-04T19:36:39.338Z,97377.72
2024-04-04T19:39:07.170Z,97375.27
2024-04-04T19:41:36.564Z,97376.65
2024-04-04T19:44:05.020Z,97378.80
2024-04-04T19:46:33.824Z,97375.23
2024-04-04T19:49:04.726Z,97375.27
2024-04-04T19:51:32.949Z,97379.71
2024-04-04T19:54:01.387Z,97384.66
2024-04-04T19:56:29.472Z,97386.78
2024-04-04T19:58:57.316Z,97385.52
2024-04-04T20:01:25.130Z,97390.34
2024-04-04T20:03:53.641Z,97389.23
2024-04-04T20:06:21.998Z,97392.71
2024-04-04T20:08:49.982Z,97398.06
2024-04-04T20:11:18.406Z,97397.89
2024-04-04T20:13:46.659Z,97397.34
2024-04-04T20:16:14.452Z,97400.89
2024-04-04T20:18:42.973Z,97401.81
2024-04-04T20:21:10.857Z,97402.91
2024-04-04T20:23:38.718Z,97406.17
2024-04-04T20:26:06.826Z,97408.70
2024-04-04T20:28:34.831Z,97410.88
2024-04-04T20:31:02.908Z,97414.73
2024-04-04T20:33:32.387Z,97417.04
2024-04-04T20:36:00.223Z,97413.59
2024-04-04T20:38:28.093Z,97413.57
2024-04-04T20:40:56.024Z,97418.55
2024-04-04T20:43:23.786Z,97420.21
2024-04-04T20:45:51.608Z,97423.83
2024-04-04T20:48:19.938Z,97426.90
2024-04-04T20:50:47.944Z,97433.70
2024-04-04T20:53:15.660Z,97432.15
2024-04-04T20:55:43.979Z,97437.06
2024-04-04T20:58:13.443Z,97434.66
2024-04-04T21:00:41.593Z,97432.16
2024-04-04T21:03:09.543Z,97432.96
2024-04-04T21:05:38.337Z,97433.45
2024-04-04T21:08:06.612Z,97431.23
2024-04-04T21:10:35.105Z,97430.13
2024-04-04T21:13:03.586Z,97426.36
2024-04-04T21:15:31.491Z,97430.39
2024-04-04T21:18:06.849Z,97436.67
2024-04-04T21:20:39.519Z,97438.16
2024-04-04T21:23:07.381Z,97438.81
2024-04-04T21:25:35.370Z,97436.64
2024-04-04T21:28:03.237Z,97436.55
2024-04-04T21:30:31.813Z,97437.09
2024-04-04T21:33:02.973Z,97439.54
2024-04-04T21:35:30.897Z,97441.16
2024-04-04T21:37:58.773Z,97440.86
2024-04-04T21:40:26.449Z,97439.59
2024-04-04T21:42:55.716Z,97441.39
2024-04-04T21:45:23.678Z,97442.42
2024-04-04T21:47:51.611Z,97440.73
2024-04-04T21:50:19.425Z,97442.75
2024-04-04T21:52:47.226Z,97441.53
2024-04-04T21:55:15.190Z,97439.58
2024-04-04T21:57:43.108Z,97440.30
2024-04-04T22:00:14.276Z,97439.82
2024-04-04T22:02:43.082Z,97440.85
2024-04-04T22:05:12.154Z,97438.20
2024-04-04T22:07:39.939Z,97439.88
2024-04-04T22:10:08.120Z,97442.27
2024-04-04T22:12:35.893Z,97448.36
2024-04-04T22:15:04.526Z,97449.05
2024-04-04T22:17:34.281Z,97452.02
2024-04-04T22:20:02.131Z,97455.94
2024-04-04T22:22:31.180Z,97451.30
2024-04-04T22:24:59.167Z,97452.08
2024-04-04T22:27:26.972Z,97451.26
2024-04-04T22:29:55.464Z,97452.95
2024-04-04T22:32:23.708Z,97450.73
2024-04-04T22:34:51.542Z,97452.56
2024-04-04T22:37:20.081Z,97451.80
2024-04-04T22:39:47.824Z,97447.92
2024-04-04T22:42:16.026Z,97449.50
2024-04-04T22:44:43.979Z,97449.95
2024-04-04T22:47:12.278Z,97456.44
2024-04-04T22:49:40.436Z,97458.70
2024-04-04T22:52:08.183Z,97452.86
2024-04-04T22:54:37.854Z,97450.75
2024-04-04T22:57:06.431Z,97450.52
2024-04-04T22:59:34.683Z,97453.30
2024-04-04T23:02:02.838Z,97457.43
2024-04-04T23:04:30.792Z,97459.88
2024-04-04T23:06:58.591Z,97455.46
2024-04-04T23:09:26.499Z,97452.91
2024-04-04T23:11:55.214Z,97449.91
2024-04-04T23:14:23.320Z,97450.80
2024-04-04T23:16:51.315Z,97455.65
2024-04-04T23:19:19.397Z,97456.08
2024-04-04T23:21:47.293Z,97456.36
2024-04-04T23:24:15.333Z,97454.52
2024-04-04T23:26:43.096Z,97458.61
2024-04-04T23:29:11.030Z,97459.91
2024-04-04T23:31:39.128Z,97457.55
2024-04-04T23:34:06.940Z,97456.77
2024-04-04T23:36:34.713Z,97457.27
2024-04-04T23:39:02.752Z,97457.66
2024-04-04T23:41:30.897Z,97457.73
2024-04-04T23:43:58.751Z,97449.11
2024-04-04T23:46:26.593Z,97446.40
2024-04-04T23:48:54.578Z,97445.38
2024-04-04T23:51:22.459Z,97446.15
2024-04-04T23:53:50.654Z,97444.56
2024-04-04T23:56:18.421Z,97445.43
2024-04-04T23:58:48.560Z,97441.84
